sensor_id;sensor_type;location;lat;lon;timestamp;pressure;altitude;pressure_sealevel;temperature;humidity
72975;BME280;61166;54.228;37.632;2022-11-11T00:01:13;99888.75;;;6.19;nan
72975;BME280;61166;54.228;37.632;2022-11-11T00:03:40;99881.41;;;6.22;nan
72975;BME280;61166;54.228;37.632;2022-11-11T00:06:09;99895.44;;;6.21;nan
72975;BME280;61166;54.228;37.632;2022-11-11T00:08:36;99895.44;;;6.05;nan
72975;BME280;61166;54.228;37.632;2022-11-11T00:11:05;99892.84;;;6.05;nan
72975;BME280;61166;54.228;37.632;2022-11-11T00:13:33;99899.19;;;6.11;nan
72975;BME280;61166;54.228;37.632;2022-11-11T00:16:17;99901.97;;;6.09;nan
72975;BME280;61166;54.228;37.632;2022-11-11T00:18:45;99893.00;;;6.12;nan
72975;BME280;61166;54.228;37.632;2022-11-11T00:21:13;99893.97;;;6.11;nan
72975;BME280;61166;54.228;37.632;2022-11-11T00:23:39;99891.19;;;6.12;nan
72975;BME280;61166;54.228;37.632;2022-11-11T00:26:06;99880.44;;;6.15;nan
72975;BME280;61166;54.228;37.632;2022-11-11T00:28:53;99885.00;;;6.13;nan
72975;BME280;61166;54.228;37.632;2022-11-11T00:31:20;99886.31;;;6.09;nan
72975;BME280;61166;54.228;37.632;2022-11-11T00:33:47;99883.38;;;6.12;nan
72975;BME280;61166;54.228;37.632;2022-11-11T00:36:13;99884.03;;;6.06;nan
72975;BME280;61166;54.228;37.632;2022-11-11T00:38:40;99892.84;;;6.13;nan
72975;BME280;61166;54.228;37.632;2022-11-11T00:41:07;99883.06;;;5.99;nan
72975;BME280;61166;54.228;37.632;2022-11-11T00:43:34;99877.81;;;6.07;nan
72975;BME280;61166;54.228;37.632;2022-11-11T00:46:01;99885.31;;;6.18;nan
72975;BME280;61166;54.228;37.632;2022-11-11T00:48:28;99882.06;;;6.16;nan
72975;BME280;61166;54.228;37.632;2022-11-11T00:50:55;99878.47;;;6.17;nan
72975;BME280;61166;54.228;37.632;2022-11-11T00:53:24;99883.84;;;6.16;nan
72975;BME280;61166;54.228;37.632;2022-11-11T00:55:53;99873.25;;;6.17;nan
72975;BME280;61166;54.228;37.632;2022-11-11T00:58:20;99873.25;;;6.17;nan
72975;BME280;61166;54.228;37.632;2022-11-11T01:00:48;99866.22;;;6.18;nan
72975;BME280;61166;54.228;37.632;2022-11-11T01:03:15;99864.44;;;6.18;nan
72975;BME280;61166;54.228;37.632;2022-11-11T01:05:42;99871.94;;;6.13;nan
72975;BME280;61166;54.228;37.632;2022-11-11T01:08:09;99868.69;;;6.11;nan
72975;BME280;61166;54.228;37.632;2022-11-11T01:10:36;99868.03;;;6.17;nan
72975;BME280;61166;54.228;37.632;2022-11-11T01:13:12;99872.91;;;6.12;nan
72975;BME280;61166;54.228;37.632;2022-11-11T01:15:41;99863.13;;;6.06;nan
72975;BME280;61166;54.228;37.632;2022-11-11T01:18:09;99859.06;;;6.04;nan
72975;BME280;61166;54.228;37.632;2022-11-11T01:20:37;99872.59;;;6.07;nan
72975;BME280;61166;54.228;37.632;2022-11-11T01:23:06;99869.00;;;6.08;nan
72975;BME280;61166;54.228;37.632;2022-11-11T01:25:37;99869.66;;;6.10;nan
72975;BME280;61166;54.228;37.632;2022-11-11T01:28:05;99863.13;;;6.14;nan
72975;BME280;61166;54.228;37.632;2022-11-11T01:30:33;99867.03;;;6.10;nan
72975;BME280;61166;54.228;37.632;2022-11-11T01:33:01;99858.72;;;6.07;nan
72975;BME280;61166;54.228;37.632;2022-11-11T01:35:28;99860.50;;;6.14;nan
72975;BME280;61166;54.228;37.632;2022-11-11T01:37:55;99863.28;;;6.13;nan
72975;BME280;61166;54.228;37.632;2022-11-11T01:40:22;99864.78;;;5.99;nan
72975;BME280;61166;54.228;37.632;2022-11-11T01:42:53;99866.06;;;6.03;nan
72975;BME280;61166;54.228;37.632;2022-11-11T01:50:56;99867.22;;;5.92;nan
72975;BME280;61166;54.228;37.632;2022-11-11T01:53:23;99867.38;;;5.91;nan
72975;BME280;61166;54.228;37.632;2022-11-11T01:55:51;99868.03;;;5.93;nan
72975;BME280;61166;54.228;37.632;2022-11-11T01:58:18;99868.03;;;5.93;nan
72975;BME280;61166;54.228;37.632;2022-11-11T02:00:46;99869.34;;;5.97;nan
72975;BME280;61166;54.228;37.632;2022-11-11T02:03:13;99866.91;;;5.95;nan
72975;BME280;61166;54.228;37.632;2022-11-11T02:05:40;99857.44;;;5.94;nan
72975;BME280;61166;54.228;37.632;2022-11-11T02:08:10;99855.00;;;5.93;nan
72975;BME280;61166;54.228;37.632;2022-11-11T02:10:41;99858.91;;;5.97;nan
72975;BME280;61166;54.228;37.632;2022-11-11T02:13:14;99861.69;;;5.95;nan
72975;BME280;61166;54.228;37.632;2022-11-11T02:15:42;99864.78;;;5.99;nan
72975;BME280;61166;54.228;37.632;2022-11-11T02:18:09;99860.53;;;5.90;nan
72975;BME280;61166;54.228;37.632;2022-11-11T02:20:38;99862.47;;;5.80;nan
72975;BME280;61166;54.228;37.632;2022-11-11T02:23:17;99857.41;;;5.78;nan
72975;BME280;61166;54.228;37.632;2022-11-11T02:25:48;99856.09;;;5.82;nan
72975;BME280;61166;54.228;37.632;2022-11-11T02:28:16;99862.63;;;5.78;nan
72975;BME280;61166;54.228;37.632;2022-11-11T02:30:45;99867.06;;;5.70;nan
72975;BME280;61166;54.228;37.632;2022-11-11T02:33:11;99864.78;;;5.67;nan
72975;BME280;61166;54.228;37.632;2022-11-11T02:35:44;99863.63;;;5.69;nan
72975;BME280;61166;54.228;37.632;2022-11-11T02:38:12;99868.03;;;5.69;nan
72975;BME280;61166;54.228;37.632;2022-11-11T02:40:43;99872.28;;;5.70;nan
72975;BME280;61166;54.228;37.632;2022-11-11T02:43:10;99877.16;;;5.64;nan
72975;BME280;61166;54.228;37.632;2022-11-11T02:45:37;99863.78;;;5.51;nan
72975;BME280;61166;54.228;37.632;2022-11-11T02:48:04;99873.25;;;5.52;nan
72975;BME280;61166;54.228;37.632;2022-11-11T02:50:30;99864.09;;;5.48;nan
72975;BME280;61166;54.228;37.632;2022-11-11T02:52:57;99867.03;;;5.45;nan
72975;BME280;61166;54.228;37.632;2022-11-11T02:55:23;99863.78;;;5.43;nan
72975;BME280;61166;54.228;37.632;2022-11-11T02:57:50;99862.13;;;5.34;nan
72975;BME280;61166;54.228;37.632;2022-11-11T03:00:17;99865.56;;;5.35;nan
72975;BME280;61166;54.228;37.632;2022-11-11T03:02:44;99868.66;;;5.30;nan
72975;BME280;61166;54.228;37.632;2022-11-11T03:05:20;99872.72;;;5.32;nan
72975;BME280;61166;54.228;37.632;2022-11-11T03:07:47;99865.06;;;5.31;nan
72975;BME280;61166;54.228;37.632;2022-11-11T03:10:14;99871.09;;;5.31;nan
72975;BME280;61166;54.228;37.632;2022-11-11T03:12:41;99871.91;;;5.32;nan
72975;BME280;61166;54.228;37.632;2022-11-11T03:15:08;99864.91;;;5.41;nan
72975;BME280;61166;54.228;37.632;2022-11-11T03:17:35;99873.56;;;5.41;nan
72975;BME280;61166;54.228;37.632;2022-11-11T03:20:02;99860.84;;;5.38;nan
72975;BME280;61166;54.228;37.632;2022-11-11T03:22:29;99861.81;;;5.37;nan
72975;BME280;61166;54.228;37.632;2022-11-11T03:25:15;99868.47;;;5.31;nan
72975;BME280;61166;54.228;37.632;2022-11-11T03:27:42;99871.09;;;5.31;nan
72975;BME280;61166;54.228;37.632;2022-11-11T03:30:09;99869.13;;;5.34;nan
72975;BME280;61166;54.228;37.632;2022-11-11T03:32:36;99867.03;;;5.37;nan
72975;BME280;61166;54.228;37.632;2022-11-11T03:35:02;99863.25;;;5.31;nan
72975;BME280;61166;54.228;37.632;2022-11-11T03:37:29;99867.19;;;5.36;nan
72975;BME280;61166;54.228;37.632;2022-11-11T03:39:55;99873.53;;;5.33;nan
72975;BME280;61166;54.228;37.632;2022-11-11T03:42:22;99866.38;;;5.35;nan
72975;BME280;61166;54.228;37.632;2022-11-11T03:44:49;99864.09;;;5.40;nan
72975;BME280;61166;54.228;37.632;2022-11-11T03:47:15;99868.66;;;5.38;nan
72975;BME280;61166;54.228;37.632;2022-11-11T03:49:42;99867.53;;;5.41;nan
72975;BME280;61166;54.228;37.632;2022-11-11T03:52:09;99879.75;;;5.40;nan
72975;BME280;61166;54.228;37.632;2022-11-11T03:54:35;99876.47;;;5.38;nan
72975;BME280;61166;54.228;37.632;2022-11-11T03:57:02;99884.31;;;5.38;nan
72975;BME280;61166;54.228;37.632;2022-11-11T03:59:28;99886.59;;;5.41;nan
72975;BME280;61166;54.228;37.632;2022-11-11T04:01:55;99888.22;;;5.42;nan
72975;BME280;61166;54.228;37.632;2022-11-11T04:04:21;99884.97;;;5.48;nan
72975;BME280;61166;54.228;37.632;2022-11-11T04:06:48;99884.34;;;5.54;nan
72975;BME280;61166;54.228;37.632;2022-11-11T04:09:15;99881.72;;;5.54;nan
72975;BME280;61166;54.228;37.632;2022-11-11T04:11:44;99874.88;;;5.53;nan
72975;BME280;61166;54.228;37.632;2022-11-11T04:14:12;99877.81;;;5.58;nan
72975;BME280;61166;54.228;37.632;2022-11-11T04:16:39;99876.34;;;5.64;nan
72975;BME280;61166;54.228;37.632;2022-11-11T04:19:05;99883.38;;;5.63;nan
72975;BME280;61166;54.228;37.632;2022-11-11T04:21:32;99881.91;;;5.69;nan
72975;BME280;61166;54.228;37.632;2022-11-11T04:23:58;99887.59;;;5.81;nan
72975;BME280;61166;54.228;37.632;2022-11-11T04:26:25;99887.94;;;5.70;nan
72975;BME280;61166;54.228;37.632;2022-11-11T04:28:52;99887.63;;;5.73;nan
72975;BME280;61166;54.228;37.632;2022-11-11T04:31:18;99893.50;;;5.75;nan
72975;BME280;61166;54.228;37.632;2022-11-11T04:33:45;99894.97;;;5.77;nan
72975;BME280;61166;54.228;37.632;2022-11-11T04:36:11;99897.22;;;5.80;nan
72975;BME280;61166;54.228;37.632;2022-11-11T04:38:38;99889.91;;;5.76;nan
72975;BME280;61166;54.228;37.632;2022-11-11T04:41:04;99894.78;;;5.79;nan
72975;BME280;61166;54.228;37.632;2022-11-11T04:43:31;99898.72;;;5.75;nan
72975;BME280;61166;54.228;37.632;2022-11-11T04:45:59;99908.63;;;5.79;nan
72975;BME280;61166;54.228;37.632;2022-11-11T04:48:26;99908.97;;;5.84;nan
72975;BME280;61166;54.228;37.632;2022-11-11T04:50:53;99903.13;;;5.90;nan
72975;BME280;61166;54.228;37.632;2022-11-11T04:53:19;99905.56;;;5.92;nan
72975;BME280;61166;54.228;37.632;2022-11-11T04:55:46;99910.59;;;5.85;nan
72975;BME280;61166;54.228;37.632;2022-11-11T04:58:14;99924.50;;;5.94;nan
72975;BME280;61166;54.228;37.632;2022-11-11T05:00:41;99909.13;;;5.83;nan
72975;BME280;61166;54.228;37.632;2022-11-11T05:03:10;99937.50;;;5.86;nan
72975;BME280;61166;54.228;37.632;2022-11-11T05:05:37;99916.34;;;5.89;nan
72975;BME280;61166;54.228;37.632;2022-11-11T05:08:04;99906.22;;;5.94;nan
72975;BME280;61166;54.228;37.632;2022-11-11T05:10:30;99912.41;;;5.93;nan
72975;BME280;61166;54.228;37.632;2022-11-11T05:12:57;99924.81;;;5.91;nan
72975;BME280;61166;54.228;37.632;2022-11-11T05:15:24;99919.06;;;5.87;nan
72975;BME280;61166;54.228;37.632;2022-11-11T05:17:50;99921.69;;;5.87;nan
72975;BME280;61166;54.228;37.632;2022-11-11T05:20:17;99917.44;;;5.86;nan
72975;BME280;61166;54.228;37.632;2022-11-11T05:22:43;99919.75;;;5.89;nan
72975;BME280;61166;54.228;37.632;2022-11-11T05:25:11;99920.41;;;5.91;nan
72975;BME280;61166;54.228;37.632;2022-11-11T05:27:38;99915.50;;;5.88;nan
72975;BME280;61166;54.228;37.632;2022-11-11T05:30:06;99915.84;;;5.93;nan
72975;BME280;61166;54.228;37.632;2022-11-11T05:32:33;99922.50;;;5.88;nan
72975;BME280;61166;54.228;37.632;2022-11-11T05:34:59;99918.94;;;5.97;nan
72975;BME280;61166;54.228;37.632;2022-11-11T05:37:26;99920.91;;;5.95;nan
72975;BME280;61166;54.228;37.632;2022-11-11T05:39:52;99917.00;;;5.99;nan
72975;BME280;61166;54.228;37.632;2022-11-11T05:42:19;99917.31;;;5.96;nan
72975;BME280;61166;54.228;37.632;2022-11-11T05:44:46;99923.19;;;5.98;nan
72975;BME280;61166;54.228;37.632;2022-11-11T05:47:13;99923.69;;;6.02;nan
72975;BME280;61166;54.228;37.632;2022-11-11T05:49:39;99927.44;;;5.99;nan
72975;BME280;61166;54.228;37.632;2022-11-11T05:52:08;99926.28;;;6.02;nan
72975;BME280;61166;54.228;37.632;2022-11-11T05:54:35;99932.34;;;6.02;nan
72975;BME280;61166;54.228;37.632;2022-11-11T05:57:02;99928.91;;;6.10;nan
72975;BME280;61166;54.228;37.632;2022-11-11T05:59:28;99934.94;;;6.10;nan
72975;BME280;61166;54.228;37.632;2022-11-11T06:01:55;99959.09;;;6.12;nan
72975;BME280;61166;54.228;37.632;2022-11-11T06:04:22;99933.47;;;6.16;nan
72975;BME280;61166;54.228;37.632;2022-11-11T06:06:49;99935.91;;;6.17;nan
72975;BME280;61166;54.228;37.632;2022-11-11T06:09:15;99930.38;;;6.12;nan
72975;BME280;61166;54.228;37.632;2022-11-11T06:11:42;99931.19;;;6.21;nan
72975;BME280;61166;54.228;37.632;2022-11-11T06:14:09;99941.16;;;6.25;nan
72975;BME280;61166;54.228;37.632;2022-11-11T06:16:35;99946.38;;;6.17;nan
72975;BME280;61166;54.228;37.632;2022-11-11T06:19:02;99944.72;;;6.24;nan
72975;BME280;61166;54.228;37.632;2022-11-11T06:21:29;99932.81;;;6.30;nan
72975;BME280;61166;54.228;37.632;2022-11-11T06:23:56;99940.16;;;6.18;nan
72975;BME280;61166;54.228;37.632;2022-11-11T06:26:23;99940.34;;;6.17;nan
72975;BME280;61166;54.228;37.632;2022-11-11T06:28:54;99943.44;;;6.20;nan
72975;BME280;61166;54.228;37.632;2022-11-11T06:31:24;99938.22;;;6.20;nan
72975;BME280;61166;54.228;37.632;2022-11-11T06:33:51;99947.34;;;6.16;nan
72975;BME280;61166;54.228;37.632;2022-11-11T06:36:20;99942.44;;;6.21;nan
72975;BME280;61166;54.228;37.632;2022-11-11T06:38:46;99942.13;;;6.24;nan
72975;BME280;61166;54.228;37.632;2022-11-11T06:41:14;99957.97;;;6.31;nan
72975;BME280;61166;54.228;37.632;2022-11-11T06:43:42;99954.38;;;6.24;nan
72975;BME280;61166;54.228;37.632;2022-11-11T06:46:28;99947.84;;;6.20;nan
72975;BME280;61166;54.228;37.632;2022-11-11T06:48:55;99948.50;;;6.22;nan
72975;BME280;61166;54.228;37.632;2022-11-11T06:51:22;99955.69;;;6.20;nan
72975;BME280;61166;54.228;37.632;2022-11-11T06:53:49;99963.03;;;6.24;nan
72975;BME280;61166;54.228;37.632;2022-11-11T06:56:15;99959.09;;;6.20;nan
72975;BME280;61166;54.228;37.632;2022-11-11T06:58:42;99953.88;;;6.20;nan
72975;BME280;61166;54.228;37.632;2022-11-11T07:01:08;99969.72;;;6.27;nan
72975;BME280;61166;54.228;37.632;2022-11-11T07:03:35;99955.50;;;6.13;nan
72975;BME280;61166;54.228;37.632;2022-11-11T07:06:03;99969.22;;;6.15;nan
72975;BME280;61166;54.228;37.632;2022-11-11T07:08:31;99963.19;;;6.07;nan
72975;BME280;61166;54.228;37.632;2022-11-11T07:10:59;99964.50;;;6.19;nan
72975;BME280;61166;54.228;37.632;2022-11-11T07:13:36;99966.28;;;6.18;nan
72975;BME280;61166;54.228;37.632;2022-11-11T07:16:03;99972.50;;;6.25;nan
72975;BME280;61166;54.228;37.632;2022-11-11T07:18:30;99969.56;;;6.28;nan
72975;BME280;61166;54.228;37.632;2022-11-11T07:20:57;99972.00;;;6.30;nan
72975;BME280;61166;54.228;37.632;2022-11-11T07:23:24;99970.97;;;6.39;nan
72975;BME280;61166;54.228;37.632;2022-11-11T07:25:50;99978.00;;;6.47;nan
72975;BME280;61166;54.228;37.632;2022-11-11T07:28:17;99969.97;;;6.56;nan
72975;BME280;61166;54.228;37.632;2022-11-11T07:30:44;99975.53;;;6.61;nan
72975;BME280;61166;54.228;37.632;2022-11-11T07:33:10;99977.97;;;6.63;nan
72975;BME280;61166;54.228;37.632;2022-11-11T07:35:37;99988.13;;;6.58;nan
72975;BME280;61166;54.228;37.632;2022-11-11T07:38:03;99981.56;;;6.62;nan
72975;BME280;61166;54.228;37.632;2022-11-11T07:40:32;99982.22;;;6.64;nan
72975;BME280;61166;54.228;37.632;2022-11-11T07:43:02;99988.44;;;6.63;nan
72975;BME280;61166;54.228;37.632;2022-11-11T07:45:28;99982.53;;;6.69;nan
72975;BME280;61166;54.228;37.632;2022-11-11T07:47:55;99984.50;;;6.67;nan
72975;BME280;61166;54.228;37.632;2022-11-11T07:50:21;99988.28;;;6.65;nan
72975;BME280;61166;54.228;37.632;2022-11-11T07:52:48;99990.56;;;6.68;nan
72975;BME280;61166;54.228;37.632;2022-11-11T07:55:16;99987.13;;;6.67;nan
72975;BME280;61166;54.228;37.632;2022-11-11T07:57:42;99995.94;;;6.66;nan
72975;BME280;61166;54.228;37.632;2022-11-11T08:00:09;99988.25;;;6.73;nan
72975;BME280;61166;54.228;37.632;2022-11-11T08:02:36;99984.50;;;6.75;nan
72975;BME280;61166;54.228;37.632;2022-11-11T08:05:03;99983.50;;;6.76;nan
72975;BME280;61166;54.228;37.632;2022-11-11T08:07:33;99986.28;;;6.83;nan
72975;BME280;61166;54.228;37.632;2022-11-11T08:10:00;99970.59;;;6.83;nan
72975;BME280;61166;54.228;37.632;2022-11-11T08:12:26;99975.00;;;6.82;nan
72975;BME280;61166;54.228;37.632;2022-11-11T08:14:53;99976.13;;;6.88;nan
72975;BME280;61166;54.228;37.632;2022-11-11T08:17:19;99975.63;;;6.92;nan
72975;BME280;61166;54.228;37.632;2022-11-11T08:19:46;99977.03;;;7.03;nan
72975;BME280;61166;54.228;37.632;2022-11-11T08:22:13;99977.50;;;7.15;nan
72975;BME280;61166;54.228;37.632;2022-11-11T08:24:39;99977.63;;;7.21;nan
72975;BME280;61166;54.228;37.632;2022-11-11T08:27:26;99980.75;;;7.17;nan
72975;BME280;61166;54.228;37.632;2022-11-11T08:29:52;99982.56;;;7.16;nan
72975;BME280;61166;54.228;37.632;2022-11-11T08:32:19;99979.41;;;7.29;nan
72975;BME280;61166;54.228;37.632;2022-11-11T08:34:45;99988.91;;;7.22;nan
72975;BME280;61166;54.228;37.632;2022-11-11T08:37:12;99984.75;;;7.36;nan
72975;BME280;61166;54.228;37.632;2022-11-11T08:39:39;99985.06;;;7.41;nan
72975;BME280;61166;54.228;37.632;2022-11-11T08:42:07;99984.56;;;7.45;nan
72975;BME280;61166;54.228;37.632;2022-11-11T08:44:34;99986.88;;;7.40;nan
72975;BME280;61166;54.228;37.632;2022-11-11T08:47:00;99980.47;;;7.43;nan
72975;BME280;61166;54.228;37.632;2022-11-11T08:49:27;99968.50;;;7.48;nan
72975;BME280;61166;54.228;37.632;2022-11-11T08:51:54;99968.59;;;7.55;nan
72975;BME280;61166;54.228;37.632;2022-11-11T08:54:20;99966.06;;;7.47;nan
72975;BME280;61166;54.228;37.632;2022-11-11T08:56:47;99982.28;;;7.42;nan
72975;BME280;61166;54.228;37.632;2022-11-11T08:59:16;99975.00;;;7.52;nan
72975;BME280;61166;54.228;37.632;2022-11-11T09:01:43;99986.28;;;7.53;nan
72975;BME280;61166;54.228;37.632;2022-11-11T09:04:09;99978.75;;;7.58;nan
72975;BME280;61166;54.228;37.632;2022-11-11T09:06:56;99979.78;;;7.49;nan
72975;BME280;61166;54.228;37.632;2022-11-11T09:09:23;99982.28;;;7.42;nan
72975;BME280;61166;54.228;37.632;2022-11-11T09:11:50;99970.13;;;7.49;nan
72975;BME280;61166;54.228;37.632;2022-11-11T09:14:16;99977.69;;;7.44;nan
72975;BME280;61166;54.228;37.632;2022-11-11T09:16:43;99980.81;;;7.40;nan
72975;BME280;61166;54.228;37.632;2022-11-11T09:19:09;99978.50;;;7.45;nan
72975;BME280;61166;54.228;37.632;2022-11-11T09:21:36;99975.53;;;7.48;nan
72975;BME280;61166;54.228;37.632;2022-11-11T09:24:03;99973.44;;;7.43;nan
72975;BME280;61166;54.228;37.632;2022-11-11T09:26:29;99976.81;;;7.52;nan
72975;BME280;61166;54.228;37.632;2022-11-11T09:28:56;99974.31;;;7.58;nan
72975;BME280;61166;54.228;37.632;2022-11-11T09:31:22;99979.72;;;7.57;nan
72975;BME280;61166;54.228;37.632;2022-11-11T09:34:09;99975.00;;;7.52;nan
72975;BME280;61166;54.228;37.632;2022-11-11T09:36:36;99982.00;;;7.60;nan
72975;BME280;61166;54.228;37.632;2022-11-11T09:39:02;99987.09;;;7.53;nan
72975;BME280;61166;54.228;37.632;2022-11-11T09:44:02;99971.16;;;7.40;nan
72975;BME280;61166;54.228;37.632;2022-11-11T09:47:09;99971.63;;;7.44;nan
72975;BME280;61166;54.228;37.632;2022-11-11T09:52:21;99969.03;;;7.44;nan
72975;BME280;61166;54.228;37.632;2022-11-11T09:54:54;99958.47;;;7.52;nan
72975;BME280;61166;54.228;37.632;2022-11-11T09:57:37;99974.72;;;7.47;nan
72975;BME280;61166;54.228;37.632;2022-11-11T10:00:17;99979.25;;;7.53;nan
72975;BME280;61166;54.228;37.632;2022-11-11T10:02:53;99971.06;;;7.56;nan
72975;BME280;61166;54.228;37.632;2022-11-11T10:05:26;99980.50;;;7.66;nan
72975;BME280;61166;54.228;37.632;2022-11-11T10:07:57;99979.13;;;7.78;nan
72975;BME280;61166;54.228;37.632;2022-11-11T10:10:33;99990.63;;;7.69;nan
72975;BME280;61166;54.228;37.632;2022-11-11T10:13:14;99989.63;;;7.70;nan
72975;BME280;61166;54.228;37.632;2022-11-11T10:21:40;99995.50;;;7.72;nan
72975;BME280;61166;54.228;37.632;2022-11-11T10:24:34;99993.66;;;7.80;nan
72975;BME280;61166;54.228;37.632;2022-11-11T10:27:16;99991.56;;;7.76;nan
72975;BME280;61166;54.228;37.632;2022-11-11T10:29:44;99985.84;;;7.72;nan
72975;BME280;61166;54.228;37.632;2022-11-11T10:32:18;99981.44;;;7.73;nan
72975;BME280;61166;54.228;37.632;2022-11-11T10:34:46;99982.06;;;7.75;nan
72975;BME280;61166;54.228;37.632;2022-11-11T10:37:39;99980.09;;;7.77;nan
72975;BME280;61166;54.228;37.632;2022-11-11T10:40:25;99988.91;;;7.84;nan
72975;BME280;61166;54.228;37.632;2022-11-11T10:42:53;99980.41;;;7.82;nan
72975;BME280;61166;54.228;37.632;2022-11-11T10:48:02;99980.50;;;7.66;nan
72975;BME280;61166;54.228;37.632;2022-11-11T10:50:41;99984.41;;;7.70;nan
72975;BME280;61166;54.228;37.632;2022-11-11T10:58:52;99984.38;;;8.01;nan
72975;BME280;61166;54.228;37.632;2022-11-11T11:06:52;99999.97;;;7.94;nan
72975;BME280;61166;54.228;37.632;2022-11-11T11:09:26;99999.31;;;7.92;nan
72975;BME280;61166;54.228;37.632;2022-11-11T11:12:15;99994.47;;;7.81;nan
72975;BME280;61166;54.228;37.632;2022-11-11T11:14:44;99998.03;;;7.88;nan
72975;BME280;61166;54.228;37.632;2022-11-11T11:17:23;100000.94;;;7.93;nan
72975;BME280;61166;54.228;37.632;2022-11-11T11:20:19;100001.59;;;7.95;nan
72975;BME280;61166;54.228;37.632;2022-11-11T11:22:54;100005.03;;;7.95;nan
72975;BME280;61166;54.228;37.632;2022-11-11T11:25:22;100002.88;;;7.99;nan
72975;BME280;61166;54.228;37.632;2022-11-11T11:27:50;100001.38;;;8.05;nan
72975;BME280;61166;54.228;37.632;2022-11-11T11:30:22;99991.75;;;7.97;nan
72975;BME280;61166;54.228;37.632;2022-11-11T11:32:59;99997.41;;;7.86;nan
72975;BME280;61166;54.228;37.632;2022-11-11T11:35:36;99995.75;;;7.85;nan
72975;BME280;61166;54.228;37.632;2022-11-11T11:38:07;100002.97;;;7.83;nan
72975;BME280;61166;54.228;37.632;2022-11-11T11:40:51;100016.25;;;7.81;nan
72975;BME280;61166;54.228;37.632;2022-11-11T11:43:31;100018.00;;;7.89;nan
72975;BME280;61166;54.228;37.632;2022-11-11T11:46:03;100016.41;;;7.80;nan
72975;BME280;61166;54.228;37.632;2022-11-11T11:56:39;100020.66;;;7.81;nan
72975;BME280;61166;54.228;37.632;2022-11-11T11:59:21;100019.97;;;7.87;nan
72975;BME280;61166;54.228;37.632;2022-11-11T12:05:12;100007.47;;;7.97;nan
72975;BME280;61166;54.228;37.632;2022-11-11T12:10:54;100021.97;;;8.08;nan
72975;BME280;61166;54.228;37.632;2022-11-11T12:16:02;100028.09;;;8.00;nan
72975;BME280;61166;54.228;37.632;2022-11-11T12:21:21;100028.63;;;8.10;nan
72975;BME280;61166;54.228;37.632;2022-11-11T12:23:59;100031.00;;;8.05;nan
72975;BME280;61166;54.228;37.632;2022-11-11T12:26:36;100034.69;;;8.11;nan
72975;BME280;61166;54.228;37.632;2022-11-11T12:43:33;100035.59;;;8.03;nan
72975;BME280;61166;54.228;37.632;2022-11-11T13:00:19;100029.41;;;7.96;nan
72975;BME280;61166;54.228;37.632;2022-11-11T13:05:18;100024.69;;;7.91;nan
72975;BME280;61166;54.228;37.632;2022-11-11T13:08:06;100030.94;;;7.90;nan
72975;BME280;61166;54.228;37.632;2022-11-11T13:16:07;100021.97;;;7.85;nan
72975;BME280;61166;54.228;37.632;2022-11-11T13:21:22;100028.53;;;7.81;nan
72975;BME280;61166;54.228;37.632;2022-11-11T13:23:49;100017.41;;;7.79;nan
72975;BME280;61166;54.228;37.632;2022-11-11T13:29:13;100002.00;;;7.84;nan
72975;BME280;61166;54.228;37.632;2022-11-11T13:31:45;100003.44;;;7.86;nan
72975;BME280;61166;54.228;37.632;2022-11-11T13:34:15;100003.44;;;7.86;nan
72975;BME280;61166;54.228;37.632;2022-11-11T13:36:51;99996.94;;;7.82;nan
72975;BME280;61166;54.228;37.632;2022-11-11T13:39:27;99999.72;;;7.81;nan
72975;BME280;61166;54.228;37.632;2022-11-11T13:41:56;99994.66;;;7.79;nan
72975;BME280;61166;54.228;37.632;2022-11-11T13:44:34;100004.31;;;7.79;nan
72975;BME280;61166;54.228;37.632;2022-11-11T13:47:11;100006.28;;;7.77;nan
72975;BME280;61166;54.228;37.632;2022-11-11T13:49:54;100001.06;;;7.77;nan
72975;BME280;61166;54.228;37.632;2022-11-11T13:53:05;100003.31;;;7.80;nan
72975;BME280;61166;54.228;37.632;2022-11-11T13:55:38;99999.72;;;7.81;nan
72975;BME280;61166;54.228;37.632;2022-11-11T13:58:19;100006.47;;;7.75;nan
72975;BME280;61166;54.228;37.632;2022-11-11T14:00:58;100002.84;;;7.76;nan
72975;BME280;61166;54.228;37.632;2022-11-11T14:13:56;100008.31;;;7.67;nan
72975;BME280;61166;54.228;37.632;2022-11-11T14:19:31;100022.59;;;7.56;nan
72975;BME280;61166;54.228;37.632;2022-11-11T14:22:16;100006.72;;;7.57;nan
72975;BME280;61166;54.228;37.632;2022-11-11T14:24:49;100012.72;;;7.66;nan
72975;BME280;61166;54.228;37.632;2022-11-11T14:27:19;100009.59;;;7.71;nan
72975;BME280;61166;54.228;37.632;2022-11-11T14:29:51;100008.59;;;7.72;nan
72975;BME280;61166;54.228;37.632;2022-11-11T14:35:21;100013.16;;;7.78;nan
72975;BME280;61166;54.228;37.632;2022-11-11T14:38:34;100011.00;;;7.81;nan
72975;BME280;61166;54.228;37.632;2022-11-11T14:49:53;100013.41;;;7.91;nan
72975;BME280;61166;54.228;37.632;2022-11-11T14:52:33;100010.78;;;7.91;nan
72975;BME280;61166;54.228;37.632;2022-11-11T15:00:21;100013.56;;;7.89;nan
72975;BME280;61166;54.228;37.632;2022-11-11T15:02:52;100026.69;;;7.89;nan
72975;BME280;61166;54.228;37.632;2022-11-11T15:05:39;100030.44;;;7.87;nan
72975;BME280;61166;54.228;37.632;2022-11-11T15:08:22;100020.78;;;7.87;nan
72975;BME280;61166;54.228;37.632;2022-11-11T15:13:54;100033.03;;;7.95;nan
72975;BME280;61166;54.228;37.632;2022-11-11T15:19:15;100020.91;;;7.94;nan
72975;BME280;61166;54.228;37.632;2022-11-11T15:21:49;100009.16;;;7.90;nan
72975;BME280;61166;54.228;37.632;2022-11-11T15:27:14;100009.03;;;7.83;nan
72975;BME280;61166;54.228;37.632;2022-11-11T15:30:02;100005.25;;;7.86;nan
72975;BME280;61166;54.228;37.632;2022-11-11T15:32:36;100002.97;;;7.83;nan
72975;BME280;61166;54.228;37.632;2022-11-11T15:37:54;100000.75;;;7.72;nan
72975;BME280;61166;54.228;37.632;2022-11-11T15:40:24;99995.50;;;7.72;nan
72975;BME280;61166;54.228;37.632;2022-11-11T15:42:53;99993.25;;;7.69;nan
72975;BME280;61166;54.228;37.632;2022-11-11T15:45:27;99994.22;;;7.68;nan
72975;BME280;61166;54.228;37.632;2022-11-11T15:47:57;99990.63;;;7.69;nan
72975;BME280;61166;54.228;37.632;2022-11-11T15:50:32;99997.97;;;7.73;nan